createdAt,value
2019-03-05T00:02:33.350Z,51.68
2019-03-05T00:05:35.269Z,52.13
2019-03-05T00:08:37.235Z,52.30
2019-03-05T00:11:39.235Z,52.40
2019-03-05T00:14:41.150Z,52.61
2019-03-05T00:17:43.048Z,52.46
2019-03-05T00:20:45.060Z,52.61
2019-03-05T00:23:52.528Z,52.58
2019-03-05T00:26:54.663Z,52.34
2019-03-05T00:30:19.861Z,52.66
2019-03-05T00:33:48.584Z,52.77
2019-03-05T00:37:06.469Z,52.91
2019-03-05T00:40:12.089Z,52.84
2019-03-05T00:43:29.709Z,52.96
2019-03-05T00:46:38.123Z,52.90
2019-03-05T00:50:18.534Z,52.69
2019-03-05T00:53:26.778Z,52.48
2019-03-05T00:56:54.950Z,52.22
2019-03-05T01:00:18.303Z,51.98
2019-03-05T01:03:29.827Z,52.29
2019-03-05T01:06:31.764Z,51.62
2019-03-05T01:09:33.665Z,51.50
2019-03-05T01:12:35.947Z,51.62
2019-03-05T01:15:37.834Z,51.92
2019-03-05T01:18:39.763Z,52.01
2019-03-05T01:21:41.725Z,52.26
2019-03-05T01:24:43.674Z,52.26
2019-03-05T01:27:45.654Z,52.16
2019-03-05T01:31:01.666Z,51.87
2019-03-05T01:34:11.581Z,51.90
2019-03-05T01:37:13.550Z,51.89
2019-03-05T01:40:17.259Z,51.96
2019-03-05T01:43:19.222Z,51.74
2019-03-05T01:46:21.142Z,51.90
2019-03-05T01:49:23.980Z,51.82
2019-03-05T01:52:25.894Z,52.17
2019-03-05T01:55:28.670Z,51.97
2019-03-05T01:58:30.593Z,51.85
2019-03-05T02:01:32.823Z,51.63
2019-03-05T02:04:34.765Z,51.69
2019-03-05T02:07:37.229Z,51.70
2019-03-05T02:10:39.424Z,51.75
2019-03-05T02:13:41.338Z,51.82
2019-03-05T02:16:43.221Z,51.74
2019-03-05T02:19:45.557Z,51.59
2019-03-05T02:22:59.293Z,51.73
2019-03-05T02:26:20.152Z,51.42
2019-03-05T02:29:31.831Z,51.60
2019-03-05T02:32:49.800Z,51.37
2019-03-05T02:36:16.163Z,51.44
2019-03-05T02:39:39.587Z,50.91
2019-03-05T02:42:45.139Z,51.29
2019-03-05T02:45:53.567Z,50.82
2019-03-05T02:49:07.952Z,51.15
2019-03-05T02:52:28.644Z,51.01
2019-03-05T02:55:52.495Z,51.07
2019-03-05T02:58:54.038Z,51.45
2019-03-05T03:01:58.943Z,51.54
2019-03-05T03:05:05.422Z,51.65
2019-03-05T03:08:07.874Z,52.05
2019-03-05T03:11:09.943Z,52.25
2019-03-05T03:14:11.876Z,52.38
2019-03-05T03:17:13.833Z,52.41
2019-03-05T03:20:15.972Z,52.47
2019-03-05T03:23:19.188Z,52.68
2019-03-05T03:26:21.235Z,52.93
2019-03-05T03:29:23.314Z,53.14
2019-03-05T03:32:25.238Z,53.30
2019-03-05T03:35:27.327Z,53.55
2019-03-05T03:38:29.228Z,53.84
2019-03-05T03:41:31.203Z,54.47
2019-03-05T03:44:33.138Z,54.52
2019-03-05T03:47:35.139Z,54.98
2019-03-05T03:50:37.075Z,55.05
2019-03-05T03:53:39.149Z,55.27
2019-03-05T03:56:41.063Z,55.17
2019-03-05T03:59:43.029Z,55.15
2019-03-05T04:02:45.091Z,55.45
2019-03-05T04:05:47.150Z,55.32
2019-03-05T04:08:49.783Z,55.12
2019-03-05T04:11:51.741Z,55.15
2019-03-05T04:14:53.641Z,55.34
2019-03-05T04:17:55.639Z,55.30
2019-03-05T04:20:57.573Z,55.41
2019-03-05T04:23:59.603Z,55.78
2019-03-05T04:27:01.520Z,55.75
2019-03-05T04:30:12.539Z,56.10
2019-03-05T04:33:14.495Z,56.13
2019-03-05T04:36:16.609Z,55.99
2019-03-05T04:39:18.508Z,56.01
2019-03-05T04:42:20.496Z,56.16
2019-03-05T04:45:32.785Z,56.08
2019-03-05T04:48:34.670Z,56.14
2019-03-05T04:51:41.272Z,56.24
2019-03-05T04:54:43.250Z,56.34
2019-03-05T04:57:46.482Z,56.08
2019-03-05T05:00:49.059Z,56.09
2019-03-05T05:03:51.012Z,55.70
2019-03-05T05:06:53.054Z,55.73
2019-03-05T05:09:55.019Z,55.42
2019-03-05T05:12:56.949Z,55.49
2019-03-05T05:15:58.858Z,54.93
2019-03-05T05:19:00.807Z,55.10
2019-03-05T05:22:02.712Z,54.93
2019-03-05T05:25:05.484Z,54.97
2019-03-05T05:28:07.443Z,54.74
2019-03-05T05:31:09.567Z,55.06
2019-03-05T05:34:11.517Z,55.35
2019-03-05T05:37:13.566Z,55.68
2019-03-05T05:40:44.841Z,55.80
2019-03-05T05:43:46.843Z,56.16
2019-03-05T05:46:48.761Z,56.30
2019-03-05T05:49:50.749Z,56.17
2019-03-05T05:52:52.665Z,56.51
2019-03-05T05:55:54.638Z,56.52
2019-03-05T05:58:56.594Z,56.63
2019-03-05T06:01:58.861Z,56.51
2019-03-05T06:05:00.850Z,56.45
2019-03-05T06:08:02.903Z,56.39
2019-03-05T06:11:04.871Z,56.29
2019-03-05T06:14:06.800Z,55.68
2019-03-05T06:17:08.783Z,55.35
2019-03-05T06:20:12.550Z,55.47
2019-03-05T06:23:14.647Z,55.37
2019-03-05T06:26:16.728Z,55.54
2019-03-05T06:29:18.726Z,55.42
2019-03-05T06:32:20.768Z,55.24
2019-03-05T06:35:22.757Z,55.10
2019-03-05T06:38:25.096Z,55.00
2019-03-05T06:41:27.083Z,54.44
2019-03-05T06:44:29.058Z,52.38
2019-03-05T06:47:30.985Z,50.81
2019-03-05T06:50:33.012Z,49.74
2019-03-05T06:53:35.015Z,49.63
2019-03-05T06:56:37.039Z,49.61
2019-03-05T06:59:40.374Z,48.23
2019-03-05T07:02:42.436Z,48.18
2019-03-05T07:06:21.680Z,46.65
2019-03-05T07:09:27.352Z,46.89
2019-03-05T07:12:33.012Z,47.13
2019-03-05T07:15:50.631Z,47.45
2019-03-05T07:18:54.879Z,47.84
2019-03-05T07:22:09.443Z,46.58
2019-03-05T07:25:11.451Z,44.56
2019-03-05T07:28:13.484Z,43.40
2019-03-05T07:31:15.446Z,42.00
2019-03-05T07:34:22.352Z,41.77
2019-03-05T07:37:24.347Z,41.78
2019-03-05T07:40:26.344Z,40.16
2019-03-05T07:43:36.209Z,39.43
2019-03-05T07:46:32.258Z,39.37
2019-03-05T07:49:43.328Z,39.11
2019-03-05T07:52:39.932Z,37.97
2019-03-05T07:55:41.877Z,37.97
2019-03-05T07:58:45.008Z,37.45
2019-03-05T08:01:46.934Z,37.51
2019-03-05T08:04:49.010Z,37.55
2019-03-05T08:07:50.974Z,37.65
2019-03-05T08:10:53.201Z,37.86
2019-03-05T08:14:24.480Z,37.69
2019-03-05T08:17:26.434Z,38.37
2019-03-05T08:20:28.525Z,39.21
2019-03-05T08:23:30.528Z,38.53
2019-03-05T08:26:32.459Z,38.12
2019-03-05T08:29:34.448Z,38.92
2019-03-05T08:32:36.414Z,38.60
2019-03-05T08:35:38.507Z,38.59
2019-03-05T08:38:40.447Z,39.21
2019-03-05T08:41:42.424Z,38.58
2019-03-05T08:44:50.542Z,38.26
2019-03-05T08:47:48.412Z,38.50
2019-03-05T08:50:50.316Z,39.19
2019-03-05T08:53:52.883Z,39.21
2019-03-05T08:56:54.852Z,38.61
2019-03-05T08:59:56.896Z,38.20
2019-03-05T09:02:58.888Z,38.34
2019-03-05T09:06:00.857Z,38.01
2019-03-05T09:09:05.327Z,37.45
2019-03-05T09:12:09.292Z,38.11
2019-03-05T09:15:16.942Z,37.76
2019-03-05T09:18:18.928Z,37.97
2019-03-05T09:21:20.879Z,38.22
2019-03-05T09:24:22.859Z,37.46
2019-03-05T09:27:24.873Z,36.79
2019-03-05T09:30:26.875Z,37.59
2019-03-05T09:33:28.839Z,37.05
2019-03-05T09:36:31.031Z,36.09
2019-03-05T09:39:33.016Z,37.00
2019-03-05T09:42:39.790Z,37.05
2019-03-05T09:45:38.903Z,37.82
2019-03-05T09:48:40.946Z,38.06
2019-03-05T09:51:42.968Z,38.03
2019-03-05T09:54:45.007Z,38.45
2019-03-05T09:57:48.933Z,38.25
2019-03-05T10:00:51.537Z,37.96
2019-03-05T10:03:54.278Z,38.20
2019-03-05T10:06:56.240Z,38.55
2019-03-05T10:09:58.313Z,38.92
2019-03-05T10:13:04.289Z,39.19
2019-03-05T10:16:05.249Z,38.79
2019-03-05T10:19:08.387Z,39.18
2019-03-05T10:22:10.387Z,38.14
2019-03-05T10:25:14.940Z,38.09
2019-03-05T10:28:16.957Z,38.61
2019-03-05T10:31:19.035Z,38.83
2019-03-05T10:34:21.112Z,38.78
2019-03-05T10:37:23.495Z,39.63
2019-03-05T10:40:37.565Z,39.84
2019-03-05T10:43:39.658Z,39.22
2019-03-05T10:46:42.472Z,38.30
2019-03-05T10:49:44.472Z,38.22
2019-03-05T10:52:46.543Z,38.19
2019-03-05T10:55:48.523Z,37.91
2019-03-05T10:58:50.575Z,37.27
2019-03-05T11:01:52.671Z,39.65
2019-03-05T11:04:54.688Z,38.96
2019-03-05T11:07:56.648Z,39.28
2019-03-05T11:10:59.603Z,39.79
2019-03-05T11:14:01.571Z,40.80
2019-03-05T11:17:03.692Z,42.32
2019-03-05T11:20:08.072Z,42.99
2019-03-05T11:23:11.893Z,43.76
2019-03-05T11:26:14.169Z,43.81
2019-03-05T11:29:16.603Z,42.62
2019-03-05T11:32:18.490Z,42.96
2019-03-05T11:35:23.477Z,42.81
2019-03-05T11:38:25.556Z,42.35
2019-03-05T11:41:27.510Z,41.96
2019-03-05T11:44:29.518Z,39.88
2019-03-05T11:47:31.528Z,40.50
2019-03-05T11:50:33.429Z,40.69
2019-03-05T11:53:35.467Z,39.43
2019-03-05T11:56:37.563Z,38.82
2019-03-05T11:59:39.650Z,39.19
2019-03-05T12:02:41.636Z,39.61
2019-03-05T12:05:43.609Z,40.11
2019-03-05T12:08:45.599Z,40.16
2019-03-05T12:11:47.556Z,40.19
2019-03-05T12:14:49.606Z,39.95
2019-03-05T12:17:51.605Z,39.34
2019-03-05T12:20:53.549Z,39.55
2019-03-05T12:23:55.506Z,39.60
2019-03-05T12:26:57.512Z,39.02
2019-03-05T12:29:59.480Z,39.05
2019-03-05T12:33:01.437Z,38.57
2019-03-05T12:36:03.387Z,38.11
2019-03-05T12:39:07.650Z,38.12
2019-03-05T12:42:09.963Z,38.82
2019-03-05T12:45:16.922Z,38.12
2019-03-05T12:48:18.879Z,37.75
2019-03-05T12:51:20.929Z,37.93
2019-03-05T12:54:22.837Z,38.39
2019-03-05T12:57:25.439Z,38.83
2019-03-05T13:00:30.206Z,38.64
2019-03-05T13:03:32.156Z,38.31
2019-03-05T13:06:34.099Z,38.39
2019-03-05T13:09:37.161Z,37.26
2019-03-05T13:12:40.146Z,38.00
2019-03-05T13:15:42.736Z,38.24
2019-03-05T13:18:44.753Z,39.62
2019-03-05T13:21:48.554Z,40.24
2019-03-05T13:24:51.306Z,40.94
2019-03-05T13:27:53.556Z,41.47
2019-03-05T13:30:55.605Z,41.52
2019-03-05T13:33:57.523Z,41.60
2019-03-05T13:37:00.875Z,41.45
2019-03-05T13:40:06.325Z,41.05
2019-03-05T13:43:08.478Z,41.15
2019-03-05T13:46:10.440Z,40.94
2019-03-05T13:49:40.773Z,41.58
2019-03-05T13:52:44.826Z,40.74
2019-03-05T13:56:07.084Z,41.34
2019-03-05T13:59:33.707Z,41.80
2019-03-05T14:02:56.887Z,42.38
2019-03-05T14:06:28.201Z,42.38
2019-03-05T14:09:30.350Z,41.81
2019-03-05T14:12:32.289Z,41.24
2019-03-05T14:15:35.287Z,41.81
2019-03-05T14:18:37.370Z,40.76
2019-03-05T14:21:39.508Z,40.92
2019-03-05T14:24:41.585Z,40.42
2019-03-05T14:27:43.714Z,41.32
2019-03-05T14:30:45.836Z,41.39
2019-03-05T14:33:50.317Z,41.51
2019-03-05T14:36:51.817Z,41.32
2019-03-05T14:39:53.849Z,41.03
2019-03-05T14:42:56.082Z,41.44
2019-03-05T14:45:58.812Z,43.07
2019-03-05T14:49:00.825Z,43.15
2019-03-05T14:52:03.409Z,42.77
2019-03-05T14:55:08.083Z,42.89
2019-03-05T14:58:10.311Z,45.94
2019-03-05T15:01:12.936Z,46.37
2019-03-05T15:04:14.960Z,45.74
2019-03-05T15:07:17.037Z,46.21
2019-03-05T15:10:19.145Z,46.64
2019-03-05T15:13:21.303Z,47.05
2019-03-05T15:16:23.419Z,47.82
2019-03-05T15:19:25.538Z,48.96
2019-03-05T15:22:27.558Z,50.83
2019-03-05T15:25:29.642Z,51.44
2019-03-05T15:28:31.695Z,51.83
2019-03-05T15:31:33.704Z,51.45
2019-03-05T15:34:35.666Z,51.76
2019-03-05T15:37:38.160Z,51.62
2019-03-05T15:40:40.408Z,52.30
2019-03-05T15:43:44.051Z,51.62
2019-03-05T15:46:46.153Z,52.68
2019-03-05T15:49:48.388Z,52.61
2019-03-05T15:52:50.494Z,52.74
2019-03-05T15:55:53.804Z,54.08
2019-03-05T15:58:56.123Z,53.91
2019-03-05T16:01:58.688Z,55.05
2019-03-05T16:05:11.136Z,54.92
2019-03-05T16:08:04.917Z,55.52
2019-03-05T16:11:07.050Z,56.47
2019-03-05T16:14:08.975Z,56.51
2019-03-05T16:17:10.937Z,57.06
2019-03-05T16:20:15.360Z,57.14
2019-03-05T16:23:17.463Z,57.53
2019-03-05T16:26:23.751Z,57.83
2019-03-05T16:29:24.799Z,58.56
2019-03-05T16:32:28.643Z,58.69
2019-03-05T16:35:36.495Z,58.80
2019-03-05T16:38:59.708Z,58.92
2019-03-05T16:42:18.713Z,59.53
2019-03-05T16:45:26.208Z,59.45
2019-03-05T16:48:33.160Z,60.21
2019-03-05T16:51:42.877Z,60.35
2019-03-05T16:54:49.449Z,60.16
2019-03-05T16:58:12.035Z,59.84
2019-03-05T17:01:17.867Z,59.80
2019-03-05T17:04:30.986Z,59.82
2019-03-05T17:07:37.734Z,60.01
2019-03-05T17:10:41.622Z,60.09
2019-03-05T17:13:43.637Z,60.40
2019-03-05T17:16:46.709Z,60.55
2019-03-05T17:19:48.993Z,60.45
2019-03-05T17:22:51.001Z,60.93
2019-03-05T17:25:52.973Z,61.17
2019-03-05T17:28:55.747Z,60.97
2019-03-05T17:31:59.551Z,60.86
2019-03-05T17:35:04.961Z,60.86
2019-03-05T17:38:07.360Z,60.90
2019-03-05T17:41:11.688Z,60.78
2019-03-05T17:44:16.853Z,61.00
2019-03-05T17:47:19.280Z,61.16
2019-03-05T17:50:22.477Z,61.43
2019-03-05T17:53:26.357Z,61.24
2019-03-05T17:56:30.825Z,61.04
2019-03-05T17:59:32.817Z,61.45
2019-03-05T18:02:35.595Z,61.52
2019-03-05T18:05:39.354Z,61.70
2019-03-05T18:08:42.824Z,61.73
2019-03-05T18:11:44.803Z,61.69
2019-03-05T18:14:47.236Z,62.02
2019-03-05T18:17:49.988Z,61.92
2019-03-05T18:20:53.144Z,61.83
2019-03-05T18:23:55.147Z,61.75
2019-03-05T18:26:57.173Z,61.69
2019-03-05T18:29:59.110Z,62.16
2019-03-05T18:33:01.101Z,61.90
2019-03-05T18:36:03.440Z,62.32
2019-03-05T18:39:06.601Z,62.73
2019-03-05T18:42:11.556Z,62.49
2019-03-05T18:45:19.644Z,62.56
2019-03-05T18:48:21.627Z,62.25
2019-03-05T18:51:25.934Z,62.48
2019-03-05T18:54:27.919Z,62.22
2019-03-05T18:57:31.808Z,62.40
2019-03-05T19:00:35.820Z,62.55
2019-03-05T19:03:42.000Z,62.77
2019-03-05T19:06:44.278Z,62.69
2019-03-05T19:09:47.150Z,62.95
2019-03-05T19:12:49.475Z,62.95
2019-03-05T19:15:51.436Z,62.72
2019-03-05T19:18:53.400Z,62.78
2019-03-05T19:21:55.687Z,62.96
2019-03-05T19:24:57.767Z,63.20
2019-03-05T19:28:04.484Z,63.33
2019-03-05T19:31:09.383Z,63.44
2019-03-05T19:34:12.511Z,63.77
2019-03-05T19:37:17.014Z,63.99
2019-03-05T19:40:25.784Z,64.21
2019-03-05T19:43:27.776Z,64.36
2019-03-05T19:46:29.813Z,64.58
2019-03-05T19:49:34.060Z,64.41
2019-03-05T19:52:37.759Z,64.81
2019-03-05T19:55:40.564Z,64.79
2019-03-05T19:58:44.290Z,64.85
2019-03-05T20:01:50.043Z,65.32
2019-03-05T20:04:52.037Z,64.83
2019-03-05T20:07:55.829Z,64.78
2019-03-05T20:10:57.914Z,64.63
2019-03-05T20:14:00.879Z,64.16
2019-03-05T20:17:03.882Z,64.12
2019-03-05T20:20:09.036Z,64.06
2019-03-05T20:23:12.021Z,64.32
2019-03-05T20:26:16.207Z,64.18
2019-03-05T20:29:18.873Z,63.59
2019-03-05T20:32:23.069Z,63.64
2019-03-05T20:35:27.155Z,63.73
2019-03-05T20:38:29.147Z,63.77
2019-03-05T20:41:31.586Z,63.73
2019-03-05T20:44:36.766Z,63.90
2019-03-05T20:47:40.513Z,63.84
2019-03-05T20:50:42.551Z,63.66
2019-03-05T20:53:44.508Z,63.59
2019-03-05T20:56:47.874Z,63.66
2019-03-05T20:59:49.871Z,63.56
2019-03-05T21:02:54.946Z,63.44
2019-03-05T21:06:00.639Z,63.37
2019-03-05T21:09:06.412Z,63.31
2019-03-05T21:12:12.319Z,63.12
2019-03-05T21:15:19.064Z,62.93
2019-03-05T21:18:21.203Z,63.27
2019-03-05T21:21:23.810Z,63.68
2019-03-05T21:24:27.649Z,63.09
2019-03-05T21:27:31.532Z,62.39
2019-03-05T21:30:36.061Z,62.65
2019-03-05T21:33:38.230Z,62.99
2019-03-05T21:36:40.275Z,62.99
2019-03-05T21:39:42.200Z,63.26
2019-03-05T21:42:48.052Z,63.49
2019-03-05T21:45:53.599Z,63.48
2019-03-05T21:48:56.603Z,63.72
2019-03-05T21:51:59.042Z,63.44
2019-03-05T21:55:00.992Z,63.62
2019-03-05T21:58:03.087Z,63.86
2019-03-05T22:01:05.082Z,63.81
2019-03-05T22:04:07.043Z,63.81
2019-03-05T22:07:08.974Z,63.80
2019-03-05T22:10:14.418Z,63.71
2019-03-05T22:13:16.350Z,63.41
2019-03-05T22:16:18.271Z,63.04
2019-03-05T22:19:21.432Z,63.25
2019-03-05T22:22:23.666Z,63.54
2019-03-05T22:25:25.708Z,63.63
2019-03-05T22:28:27.668Z,64.03
2019-03-05T22:31:29.672Z,64.30
2019-03-05T22:34:31.605Z,64.20
2019-03-05T22:37:33.542Z,64.49
2019-03-05T22:40:35.476Z,64.04
2019-03-05T22:43:37.474Z,64.09
2019-03-05T22:46:39.422Z,64.01
2019-03-05T22:49:41.373Z,64.22
2019-03-05T22:52:43.420Z,64.50
2019-03-05T22:55:46.424Z,64.68
2019-03-05T22:58:50.339Z,64.67
2019-03-05T23:01:52.716Z,64.94
2019-03-05T23:04:55.157Z,65.11
2019-03-05T23:07:59.004Z,65.22
2019-03-05T23:11:01.192Z,65.58
2019-03-05T23:14:03.357Z,65.32
2019-03-05T23:17:05.668Z,65.42
2019-03-05T23:20:12.316Z,65.24
2019-03-05T23:23:15.898Z,65.04
2019-03-05T23:26:19.002Z,64.75
2019-03-05T23:29:23.033Z,64.51
2019-03-05T23:32:25.073Z,64.27
2019-03-05T23:35:27.103Z,64.04
2019-03-05T23:38:29.114Z,63.88
2019-03-05T23:41:31.021Z,63.77
2019-03-05T23:44:32.997Z,63.68
2019-03-05T23:47:34.916Z,63.60
2019-03-05T23:50:36.879Z,63.52
2019-03-05T23:53:38.897Z,63.34
2019-03-05T23:56:40.898Z,63.38
2019-03-05T23:59:42.886Z,63.34
